Language: 


Des rapports , des résumés tant et plus, au choix de chacun....


Données statistiques de la station
Quotidien Rapport Janvier 28, 2017 Unités:  Anglais    Métrique   les deux
« Précédent Jour
Suivant Jour »
Quotidien Hebdomadaire Mensuel Annuel Actuel
  Haut: Bas: Moyen:
Température: 48.4 °F 32 °F 43.3 °F
Pt de rosée: 42.4 °F 31.6 °F 37.4 °F
Humidité: 97 % 0 % 80 %
Vitesse du vent: 16.8 mph 0 mph 6.3 mph
Rafales: 19.5 mph - -
Vent:- - South
Pression: 30 in 0 in -
Précipitation: 0 in    
Historical Graphs
 
 
Données statistiques pour Janvier 28, 2017
Heure Température Point de rosée Pression Vent Vitesse du vent Refales Humidité Pluie (taux horaire)
00:00 42.8 °F 34 °F 29.9 in South 6.3 mph 11 mph 71 % 0 in
00:05 42.8 °F 33.6 °F 29.9 in South 4 mph 11 mph 70 % 0 in
00:15 43 °F 33.8 °F 29.9 in SE 9.2 mph 10.1 mph 70 % 0 in
00:20 43 °F 33.4 °F 29.9 in SSE 6 mph 10.1 mph 69 % 0 in
00:25 42.8 °F 33.3 °F 29.9 in SSW 3.6 mph 10.1 mph 69 % 0 in
00:30 42.8 °F 33.3 °F 29.9 in SSE 3.8 mph 8.5 mph 69 % 0 in
00:35 42.8 °F 33.3 °F 29.9 in South 6.7 mph 8.5 mph 69 % 0 in
00:40 42.8 °F 32.9 °F 29.9 in SSE 7.4 mph 11 mph 68 % 0 in
00:45 42.8 °F 32.9 °F 29.9 in SSE 4.7 mph 11 mph 68 % 0 in
00:50 42.8 °F 32.9 °F 29.9 in SSE 5.6 mph 10.7 mph 68 % 0 in
00:55 42.8 °F 32.9 °F 29.9 in ESE 9.8 mph 10.7 mph 68 % 0 in
01:00 43 °F 33.1 °F 29.9 in South 7.6 mph 9.8 mph 68 % 0 in
01:05 43.2 °F 32.9 °F 29.9 in SSE 4.3 mph 12.5 mph 67 % 0 in
01:10 43.2 °F 32.9 °F 29.9 in South 4.3 mph 12.5 mph 67 % 0 in
01:15 43.2 °F 32.9 °F 29.9 in South 6.5 mph 13.4 mph 67 % 0 in
01:20 43.2 °F 32.5 °F 29.9 in SE 7.4 mph 13.4 mph 66 % 0 in
01:21 43.2 °F 32.5 °F 29.9 in South 6.3 mph 13.4 mph 66 % 0 in
01:26 43 °F 32.4 °F 29.9 in SSE 9.6 mph 11 mph 66 % 0 in
01:31 43 °F 32.4 °F 29.9 in South 7.6 mph 10.7 mph 66 % 0 in
01:36 42.8 °F 31.8 °F 29.9 in South 3.1 mph 10.7 mph 65 % 0 in
01:41 42.6 °F 31.6 °F 29.9 in SSW 8.1 mph 10.5 mph 65 % 0 in
01:46 42.6 °F 32 °F 29.9 in SSE 12.8 mph 12.8 mph 66 % 0 in
01:51 42.4 °F 31.8 °F 29.9 in South 6 mph 12.8 mph 66 % 0 in
01:56 42.4 °F 31.8 °F 29.9 in ESE 7.8 mph 17 mph 66 % 0 in
02:02 32 °F 31.6 °F 0 in South 8.7 mph 8.7 mph 0 % 0 in
02:12 42.1 °F 31.8 °F 29.9 in SSE 3.8 mph 10.5 mph 67 % 0 in
02:17 42.1 °F 31.8 °F 29.9 in South 4.3 mph 10.5 mph 67 % 0 in
02:22 42.1 °F 31.8 °F 29.9 in SSE 6.5 mph 10.5 mph 67 % 0 in
02:27 41.9 °F 31.6 °F 29.9 in SSE 5.4 mph 10.5 mph 67 % 0 in
02:32 41.9 °F 32.2 °F 29.9 in ESE 9.6 mph 10.1 mph 68 % 0 in
02:37 41.9 °F 32.2 °F 29.9 in South 8.5 mph 9.6 mph 68 % 0 in
02:42 41.9 °F 32.2 °F 29.9 in SSE 11 mph 11 mph 68 % 0 in
02:47 42.1 °F 32.4 °F 29.9 in SSE 5.8 mph 11.2 mph 68 % 0 in
02:57 42.1 °F 32.4 °F 29.9 in SSE 4.9 mph 10.1 mph 68 % 0 in
03:02 41.9 °F 32.2 °F 29.9 in SE 4 mph 9.6 mph 68 % 0 in
03:12 41.9 °F 32.4 °F 29.9 in SSE 5.6 mph 8.5 mph 69 % 0 in
03:17 41.9 °F 32.4 °F 29.9 in SE 3.4 mph 10.7 mph 69 % 0 in
03:22 41.7 °F 32.4 °F 29.9 in SE 3.4 mph 10.7 mph 69 % 0 in
03:27 41.5 °F 32.2 °F 29.9 in SSE 5.8 mph 8.5 mph 69 % 0 in
03:32 41.4 °F 31.8 °F 29.9 in SSE 11 mph 11 mph 69 % 0 in
03:37 41.2 °F 31.8 °F 29.9 in SE 7.2 mph 11 mph 69 % 0 in
03:47 41 °F 32 °F 29.9 in SSE 5.8 mph 10.1 mph 70 % 0 in
03:52 40.8 °F 31.8 °F 29.9 in SSE 6.5 mph 10.1 mph 70 % 0 in
03:57 41 °F 32 °F 29.9 in SSE 4 mph 8.7 mph 70 % 0 in
04:07 41.2 °F 32.5 °F 29.9 in SE 9.6 mph 11 mph 71 % 0 in
04:13 41.4 °F 32.5 °F 29.9 in SE 3.8 mph 10.7 mph 71 % 0 in
04:18 41.4 °F 33.1 °F 29.9 in SSE 7.2 mph 12.3 mph 72 % 0 in
04:23 41.4 °F 33.1 °F 29.9 in SSW 9.6 mph 12.3 mph 72 % 0 in
04:26 41.5 °F 33.3 °F 29.9 in SSE 6.3 mph 12.1 mph 72 % 0 in
04:27 41.5 °F 33.3 °F 29.9 in South 8.1 mph 12.1 mph 72 % 0 in
04:32 41.5 °F 33.3 °F 29.9 in SSE 10.7 mph 12.1 mph 72 % 0 in
04:37 41.5 °F 33.3 °F 29.8 in SSE 7.6 mph 11.9 mph 72 % 0 in
04:42 41.5 °F 33.4 °F 29.8 in South 5.6 mph 11 mph 73 % 0 in
04:52 41.7 °F 33.3 °F 29.9 in SSE 10.1 mph 13.9 mph 72 % 0 in
04:57 41.9 °F 33.4 °F 29.9 in South 5.6 mph 13.9 mph 72 % 0 in
05:02 41.9 °F 33.4 °F 29.9 in SSE 7.6 mph 13.4 mph 72 % 0 in
05:07 41.9 °F 33.3 °F 29.8 in SSE 6.5 mph 13.4 mph 71 % 0 in
05:12 41.7 °F 33.1 °F 29.8 in SSE 5.6 mph 13.2 mph 71 % 0 in
05:17 41.5 °F 32.7 °F 29.8 in South 7.8 mph 12.3 mph 71 % 0 in
05:22 41.5 °F 32.7 °F 29.9 in SSE 8.5 mph 10.7 mph 71 % 0 in
05:27 41.5 °F 32.7 °F 29.9 in SSE 8.5 mph 10.7 mph 71 % 0 in
05:32 41.5 °F 32.7 °F 29.9 in SSE 8.1 mph 11.2 mph 71 % 0 in
05:37 41.7 °F 33.3 °F 29.9 in SSE 7.8 mph 12.8 mph 72 % 0 in
05:42 41.7 °F 33.1 °F 29.9 in ESE 6 mph 12.8 mph 71 % 0 in
05:47 41.7 °F 33.1 °F 29.9 in South 7.8 mph 12.8 mph 71 % 0 in
05:52 41.7 °F 33.1 °F 29.9 in South 12.5 mph 12.8 mph 71 % 0 in
05:57 41.5 °F 32.7 °F 29.9 in South 6.5 mph 12.5 mph 71 % 0 in
06:02 41.5 °F 32.7 °F 29.9 in SSE 8.7 mph 10.7 mph 71 % 0 in
06:07 41.5 °F 32.7 °F 29.9 in SSE 4 mph 10.7 mph 71 % 0 in
06:12 41.4 °F 33.1 °F 29.9 in SSE 6 mph 13.2 mph 72 % 0 in
06:17 41.4 °F 33.1 °F 29.9 in SSE 5.6 mph 13.2 mph 72 % 0 in
06:22 41.4 °F 33.1 °F 29.9 in SSE 3.4 mph 9.8 mph 72 % 0 in
06:27 41.4 °F 33.1 °F 29.9 in SSE 10.7 mph 10.7 mph 72 % 0 in
06:37 41.4 °F 33.3 °F 29.9 in South 4.9 mph 12.3 mph 73 % 0 in
06:42 41.4 °F 33.6 °F 29.9 in South 6.3 mph 12.8 mph 74 % 0 in
06:47 41.4 °F 33.6 °F 29.9 in SSE 6.3 mph 12.8 mph 74 % 0 in
06:57 41.5 °F 34.2 °F 29.9 in SSE 12.5 mph 13.2 mph 75 % 0 in
07:07 42.1 °F 35.1 °F 29.9 in SSW 6.5 mph 15.4 mph 76 % 0 in
07:12 42.1 °F 35.1 °F 29.9 in South 8.5 mph 14.5 mph 76 % 0 in
07:17 42.1 °F 35.1 °F 29.9 in South 7.2 mph 12.3 mph 76 % 0 in
07:22 42.3 °F 35.2 °F 29.9 in South 10.1 mph 17 mph 76 % 0 in
07:27 42.3 °F 35.2 °F 29.9 in SSW 8.5 mph 17 mph 76 % 0 in
07:32 42.3 °F 35.2 °F 29.9 in SSW 6.3 mph 11 mph 76 % 0 in
07:37 42.1 °F 35.1 °F 29.8 in SSE 5.4 mph 11.9 mph 76 % 0 in
07:42 42.3 °F 35.2 °F 29.8 in SSE 6.3 mph 12.8 mph 76 % 0 in
07:47 42.3 °F 35.2 °F 29.8 in South 6.3 mph 12.8 mph 76 % 0 in
07:52 42.3 °F 35.2 °F 29.9 in South 12.3 mph 12.3 mph 76 % 0 in
07:57 42.3 °F 35.2 °F 29.9 in SSE 9.8 mph 12.3 mph 76 % 0 in
08:02 42.1 °F 34.7 °F 29.9 in SE 6.3 mph 12.3 mph 75 % 0 in
08:07 42.1 °F 34.7 °F 29.9 in SSW 6.5 mph 12.1 mph 75 % 0 in
08:12 42.1 °F 34.7 °F 29.9 in SSW 7.4 mph 10.7 mph 75 % 0 in
08:17 42.1 °F 34.7 °F 29.9 in WSW 5.8 mph 13 mph 75 % 0 in
08:22 42.1 °F 35.1 °F 29.9 in South 8.1 mph 13.2 mph 76 % 0 in
08:27 42.1 °F 35.1 °F 29.9 in South 12.1 mph 13.2 mph 76 % 0 in
08:32 41.9 °F 34.9 °F 29.9 in South 7.4 mph 12.1 mph 76 % 0 in
08:37 41.7 °F 34.3 °F 29.9 in SSE 10.1 mph 12.1 mph 75 % 0 in
08:47 41.5 °F 34.5 °F 29.9 in SSW 8.5 mph 12.8 mph 76 % 0 in
08:52 41.7 °F 34.7 °F 29.9 in SSE 6 mph 10.7 mph 76 % 0 in
08:57 41.7 °F 34.7 °F 29.9 in SSE 5.4 mph 10.7 mph 76 % 0 in
09:02 41.9 °F 35.2 °F 29.9 in SSE 10.1 mph 11.9 mph 77 % 0 in
09:07 42.1 °F 35.4 °F 29.9 in South 5.6 mph 12.3 mph 77 % 0 in
09:12 42.3 °F 35.4 °F 29.9 in SSW 5.4 mph 12.3 mph 77 % 0 in
09:17 42.3 °F 35.4 °F 29.9 in South 12.3 mph 17.2 mph 77 % 0 in
09:22 42.4 °F 35.8 °F 29.9 in SSE 6.9 mph 17.2 mph 77 % 0 in
09:27 42.4 °F 35.8 °F 29.9 in South 8.1 mph 15.7 mph 77 % 0 in
09:32 42.6 °F 36 °F 29.9 in South 8.5 mph 15.7 mph 77 % 0 in
09:37 42.8 °F 36 °F 29.9 in South 7.2 mph 14.3 mph 77 % 0 in
09:42 43.2 °F 36.3 °F 29.9 in SSW 5.8 mph 14.3 mph 77 % 0 in
09:47 43.2 °F 36.1 °F 29.9 in SSE 7.4 mph 12.5 mph 76 % 0 in
09:52 43.2 °F 36.1 °F 29.9 in South 6.5 mph 12.5 mph 76 % 0 in
09:57 43.3 °F 36.1 °F 29.9 in SSE 8.7 mph 13 mph 76 % 0 in
10:02 43.3 °F 36.1 °F 29.9 in South 7.4 mph 13 mph 76 % 0 in
10:07 43.5 °F 36.7 °F 29.9 in SSE 6.3 mph 12.8 mph 77 % 0 in
10:12 44.2 °F 37.4 °F 29.9 in South 16.8 mph 16.8 mph 77 % 0 in
10:17 44.2 °F 37 °F 29.9 in South 6 mph 16.8 mph 76 % 0 in
10:22 44.8 °F 37.6 °F 29.9 in SSE 9.6 mph 16.8 mph 76 % 0 in
10:27 45.1 °F 37.9 °F 29.9 in SSW 7.2 mph 13 mph 76 % 0 in
10:32 45.9 °F 38.7 °F 29.9 in SSW 6.3 mph 13 mph 76 % 0 in
10:37 46.6 °F 39 °F 29.9 in SSE 10.7 mph 12.8 mph 75 % 0 in
10:42 46.8 °F 39.4 °F 29.9 in SSW 8.5 mph 12.5 mph 75 % 0 in
10:47 46.9 °F 39 °F 29.9 in SSW 14.5 mph 16.1 mph 74 % 0 in
10:53 47.3 °F 39 °F 29.9 in South 8.5 mph 16.1 mph 73 % 0 in
10:57 47.3 °F 39 °F 29.9 in South 10.3 mph 17.2 mph 73 % 0 in
11:02 47.7 °F 39 °F 29.9 in South 15.2 mph 17.2 mph 72 % 0 in
11:07 47.3 °F 38.5 °F 29.9 in South 13 mph 17.7 mph 71 % 0 in
11:12 46.9 °F 38.1 °F 29.9 in South 10.3 mph 19.5 mph 71 % 0 in
11:17 46.9 °F 38.5 °F 29.9 in South 11 mph 19.5 mph 72 % 0 in
11:22 46.9 °F 38.5 °F 29.9 in South 9.8 mph 14.8 mph 72 % 0 in
11:27 46.8 °F 38.7 °F 29.9 in SSW 11.4 mph 13.6 mph 73 % 0 in
11:32 46.9 °F 38.8 °F 29.9 in SSW 7.8 mph 13.4 mph 73 % 0 in
11:42 47.3 °F 39 °F 29.9 in WSW 8.1 mph 13.2 mph 73 % 0 in
11:47 47.3 °F 39.6 °F 29.9 in SSW 8.5 mph 13.2 mph 74 % 0 in
11:52 47.7 °F 39.7 °F 29.9 in SSE 6 mph 13 mph 74 % 0 in
11:57 47.7 °F 39.7 °F 29.9 in SSW 9.2 mph 12.5 mph 74 % 0 in
12:02 47.1 °F 39 °F 29.9 in SSW 7.8 mph 11.9 mph 73 % 0 in
12:07 46.9 °F 39 °F 29.9 in SSW 10.7 mph 11.9 mph 74 % 0 in
12:12 46.9 °F 39 °F 29.9 in South 8.5 mph 11.9 mph 74 % 0 in
12:17 46.9 °F 39.6 °F 29.9 in SSW 8.5 mph 10.7 mph 75 % 0 in
12:22 47.1 °F 39.9 °F 29.9 in South 6.5 mph 9.6 mph 76 % 0 in
12:27 47.3 °F 40.3 °F 29.9 in SSW 5.4 mph 8.7 mph 76 % 0 in
12:32 47.7 °F 40.5 °F 29.9 in SSW 7.2 mph 8.7 mph 76 % 0 in
12:37 48 °F 40.8 °F 29.9 in SSW 6.3 mph 12.8 mph 76 % 0 in
12:42 48.2 °F 41 °F 29.9 in SW 12.5 mph 14.3 mph 76 % 0 in
12:43 48.2 °F 41 °F 29.9 in WSW 6 mph 14.3 mph 76 % 0 in
12:48 48.2 °F 40.6 °F 29.9 in SSW 14.3 mph 14.3 mph 75 % 0 in
12:53 48.2 °F 40.6 °F 29.9 in SW 10.7 mph 14.3 mph 75 % 0 in
12:58 48.2 °F 40.6 °F 29.9 in South 8.5 mph 14.3 mph 75 % 0 in
13:03 48 °F 40.5 °F 29.9 in WSW 9.8 mph 13.2 mph 75 % 0 in
13:08 48 °F 40.5 °F 29.9 in SSW 6 mph 13.9 mph 75 % 0 in
13:13 48.4 °F 41.2 °F 29.9 in SW 11 mph 13.9 mph 76 % 0 in
13:18 48.2 °F 41 °F 29.9 in WSW 10.1 mph 13.2 mph 76 % 0 in
13:23 48.2 °F 41 °F 29.9 in SW 10.3 mph 13.2 mph 76 % 0 in
13:28 48.2 °F 41 °F 29.9 in SW 10.3 mph 12.5 mph 76 % 0 in
13:33 48.2 °F 41 °F 29.9 in SSW 10.7 mph 11.9 mph 76 % 0 in
13:38 48 °F 40.8 °F 29.9 in SW 7.6 mph 12.5 mph 76 % 0 in
13:43 48 °F 40.8 °F 29.9 in SW 9.2 mph 12.8 mph 76 % 0 in
13:48 48 °F 40.8 °F 29.9 in South 5.8 mph 12.8 mph 76 % 0 in
13:53 47.8 °F 40.6 °F 29.9 in South 5.4 mph 9.4 mph 76 % 0 in
13:58 47.8 °F 40.6 °F 29.9 in SSW 9.6 mph 9.6 mph 76 % 0 in
14:03 47.7 °F 40.8 °F 29.9 in SW 10.3 mph 12.3 mph 77 % 0 in
14:08 47.5 °F 41 °F 29.9 in SW 8.1 mph 12.3 mph 78 % 0 in
14:13 47.5 °F 41 °F 29.9 in SW 5.6 mph 11 mph 78 % 0 in
14:18 47.7 °F 41.5 °F 29.9 in SSW 8.7 mph 8.7 mph 79 % 0 in
14:23 47.7 °F 41.5 °F 29.9 in SW 7.6 mph 10.3 mph 79 % 0 in
14:28 47.7 °F 41.5 °F 29.9 in SW 6.3 mph 10.5 mph 79 % 0 in
14:33 47.7 °F 41.7 °F 29.9 in SSW 4.9 mph 10.5 mph 80 % 0 in
14:38 47.7 °F 41.7 °F 29.9 in SW 5.8 mph 8.7 mph 80 % 0 in
14:43 47.7 °F 41.7 °F 29.9 in SW 6.3 mph 9.8 mph 80 % 0 in
14:53 47.3 °F 41.7 °F 29.9 in SSW 6 mph 10.5 mph 81 % 0 in
14:58 47.1 °F 42.1 °F 29.9 in SSW 6.5 mph 10.7 mph 82 % 0 in
15:03 46.9 °F 41.7 °F 29.9 in SSW 7.6 mph 10.7 mph 82 % 0 in
15:08 46.9 °F 41.7 °F 29.9 in SSW 5.8 mph 8.7 mph 82 % 0 in
15:13 46.9 °F 42.1 °F 29.9 in SW 5.4 mph 8.7 mph 83 % 0 in
15:18 46.9 °F 42.1 °F 29.9 in SSW 4.9 mph 6.7 mph 83 % 0 in
15:23 46.9 °F 42.1 °F 29.9 in SSW 5.4 mph 7.6 mph 83 % 0 in
15:28 46.8 °F 41.9 °F 29.9 in SSW 3.8 mph 7.6 mph 83 % 0 in
15:33 46.8 °F 41.9 °F 29.9 in SW 3.4 mph 7.2 mph 83 % 0 in
15:38 46.9 °F 42.4 °F 29.9 in SW 3.8 mph 5.8 mph 84 % 0 in
15:43 46.8 °F 42.3 °F 29.9 in SSW 5.6 mph 5.8 mph 84 % 0 in
15:53 46.8 °F 42.3 °F 29.9 in Calm   5.8 mph 84 % 0 in
15:58 46.6 °F 42.1 °F 29.9 in SSW 1.3 mph 4.9 mph 84 % 0 in
16:03 46.6 °F 42.1 °F 29.9 in Calm   5.8 mph 84 % 0 in
16:08 46.6 °F 42.1 °F 29.9 in Calm   5.8 mph 84 % 0 in
16:13 46.6 °F 41.9 °F 29.9 in SW 4.9 mph 4.9 mph 84 % 0 in
16:18 46.6 °F 41.9 °F 29.9 in SSW 2.9 mph 4.9 mph 84 % 0 in
16:23 46.2 °F 41.7 °F 29.9 in SSW 2.9 mph 4.9 mph 84 % 0 in
16:28 46.2 °F 41.7 °F 29.9 in Calm   5.6 mph 84 % 0 in
16:33 46.2 °F 41.7 °F 29.9 in South 4 mph 5.6 mph 84 % 0 in
16:38 46 °F 41.5 °F 29.9 in South 3.8 mph 4.3 mph 84 % 0 in
16:43 46 °F 41.5 °F 29.9 in SW 2.7 mph 4.3 mph 84 % 0 in
16:48 45.9 °F 41.7 °F 29.9 in South 4 mph 6.5 mph 85 % 0 in
16:53 45.9 °F 41.5 °F 29.9 in South 2.7 mph 6.5 mph 85 % 0 in
16:58 45.3 °F 41.2 °F 29.9 in South 2.2 mph 4 mph 85 % 0 in
17:03 45.1 °F 40.8 °F 29.9 in South 2.9 mph 3.8 mph 85 % 0 in
17:08 45 °F 40.6 °F 29.9 in South 2.5 mph 3.6 mph 85 % 0 in
17:13 44.4 °F 40.3 °F 29.9 in SSW 3.8 mph 4.5 mph 85 % 0 in
17:18 44.2 °F 40.1 °F 29.9 in SSW 3.8 mph 4.5 mph 85 % 0 in
17:23 44.1 °F 40.1 °F 29.9 in SSE 4 mph 5.6 mph 86 % 0 in
17:28 43.9 °F 39.9 °F 29.9 in SSW 3.8 mph 5.6 mph 86 % 0 in
17:33 43.9 °F 40.3 °F 29.9 in South 2.7 mph 5.4 mph 87 % 0 in
17:38 44.1 °F 40.5 °F 29.9 in South 3.4 mph 5.4 mph 87 % 0 in
17:43 44.1 °F 40.5 °F 29.9 in South 4 mph 5.4 mph 87 % 0 in
17:48 44.1 °F 40.6 °F 29.9 in SSW 3.8 mph 5.4 mph 88 % 0 in
17:53 43.9 °F 40.5 °F 29.9 in South 2 mph 4.5 mph 88 % 0 in
17:58 43.5 °F 40.3 °F 29.9 in SSW 2.5 mph 4.9 mph 88 % 0 in
18:03 43.5 °F 40.3 °F 29.9 in South 4.3 mph 4.9 mph 88 % 0 in
18:08 43.5 °F 40.5 °F 29.9 in South 5.6 mph 5.6 mph 89 % 0 in
18:18 43.3 °F 40.3 °F 29.9 in South 2.7 mph 4.9 mph 89 % 0 in
18:23 43.3 °F 40.3 °F 30 in South 2.7 mph 6.3 mph 89 % 0 in
18:28 43.3 °F 40.6 °F 30 in SSW 3.1 mph 6.3 mph 90 % 0 in
18:33 43.3 °F 40.6 °F 30 in SSW 3.6 mph 5.6 mph 90 % 0 in
18:38 43.3 °F 40.8 °F 30 in SSW 2.7 mph 4.9 mph 91 % 0 in
18:43 43.3 °F 40.8 °F 30 in SSW 3.8 mph 4.5 mph 91 % 0 in
18:48 43.2 °F 40.6 °F 30 in SSW 4 mph 5.6 mph 91 % 0 in
18:53 43.2 °F 40.6 °F 30 in SSW 6.9 mph 6.9 mph 91 % 0 in
18:54 43.2 °F 40.6 °F 30 in SSW 4.9 mph 6.9 mph 91 % 0 in
18:59 43.2 °F 40.6 °F 30 in SSW 3.6 mph 8.1 mph 91 % 0 in
19:04 43.2 °F 40.8 °F 30 in SSW 6 mph 8.1 mph 92 % 0 in
19:09 43.3 °F 41.2 °F 30 in SSW 7.2 mph 9.6 mph 92 % 0 in
19:14 43.3 °F 41.2 °F 30 in SSW 5.8 mph 9.6 mph 92 % 0 in
19:19 43.2 °F 40.8 °F 30 in SSW 4 mph 7.8 mph 92 % 0 in
19:24 43.2 °F 40.8 °F 30 in SSW 4.3 mph 8.1 mph 92 % 0 in
19:29 43.2 °F 41.2 °F 30 in SSW 5.6 mph 8.1 mph 93 % 0 in
19:34 43.2 °F 41.2 °F 30 in SW 6.3 mph 8.1 mph 93 % 0 in
19:44 42.8 °F 40.6 °F 30 in SSW 5.8 mph 7.6 mph 92 % 0 in
19:49 42.4 °F 40.5 °F 30 in South 3.8 mph 6.5 mph 93 % 0 in
19:59 42.1 °F 40.3 °F 30 in SW 4.9 mph 6.5 mph 93 % 0 in
20:04 41.9 °F 39.9 °F 30 in South 6.3 mph 6.3 mph 93 % 0 in
20:09 41.9 °F 39.9 °F 30 in SW 4 mph 7.8 mph 93 % 0 in
20:14 41.7 °F 39.7 °F 30 in SSW 3.8 mph 7.8 mph 93 % 0 in
20:19 41.5 °F 39.7 °F 30 in SW 4.9 mph 7.6 mph 93 % 0 in
20:24 41.4 °F 39.6 °F 30 in SSW 5.6 mph 7.6 mph 93 % 0 in
20:29 41.4 °F 39.6 °F 30 in SSW 5.8 mph 6.7 mph 93 % 0 in
20:34 41.2 °F 39.4 °F 30 in SSW 4.3 mph 6.7 mph 93 % 0 in
20:39 41.2 °F 39.6 °F 29.9 in WSW 5.4 mph 6 mph 94 % 0 in
20:44 41 °F 39.4 °F 29.9 in SSW 4.7 mph 6.9 mph 94 % 0 in
20:49 41 °F 39.4 °F 29.9 in SSW 6.5 mph 6.9 mph 94 % 0 in
20:54 40.8 °F 39.2 °F 30 in SSW 3.8 mph 6.5 mph 94 % 0 in
20:59 40.6 °F 39 °F 30 in SSW 7.4 mph 7.4 mph 94 % 0 in
21:04 40.6 °F 39.4 °F 30 in South 3.8 mph 7.4 mph 95 % 0 in
21:09 40.5 °F 39 °F 29.9 in South 4.9 mph 6.5 mph 95 % 0 in
21:14 40.3 °F 39 °F 29.9 in SSW 5.6 mph 6.3 mph 95 % 0 in
21:24 39.9 °F 38.7 °F 30 in SSW 4.7 mph 6.3 mph 95 % 0 in
21:29 39.7 °F 38.5 °F 30 in SSW 3.6 mph 6.5 mph 95 % 0 in
21:34 39.7 °F 38.5 °F 30 in SSW 4 mph 6.5 mph 95 % 0 in
21:39 39.6 °F 38.3 °F 30 in SSW 5.4 mph 6.5 mph 95 % 0 in
21:44 39.6 °F 38.3 °F 30 in SSW 4.7 mph 6.5 mph 95 % 0 in
21:49 39.4 °F 38.1 °F 30 in SSW 3.1 mph 6.5 mph 95 % 0 in
21:54 39.2 °F 37.9 °F 30 in SSW 4.3 mph 6.5 mph 95 % 0 in
21:59 39.2 °F 37.9 °F 30 in South 3.8 mph 6.5 mph 95 % 0 in
22:04 39 °F 37.8 °F 30 in SSW 4 mph 7.4 mph 95 % 0 in
22:14 39 °F 37.9 °F 30 in WSW 3.8 mph 6.3 mph 96 % 0 in
22:19 38.8 °F 37.8 °F 30 in SSW 4.9 mph 6.3 mph 96 % 0 in
22:24 38.7 °F 37.8 °F 30 in WSW 3.8 mph 6.3 mph 96 % 0 in
22:29 38.7 °F 37.8 °F 30 in SW 4.9 mph 6.3 mph 96 % 0 in
22:34 38.7 °F 37.8 °F 30 in SW 2.7 mph 6.3 mph 96 % 0 in
22:39 38.7 °F 37.8 °F 30 in SSW 3.1 mph 7.2 mph 96 % 0 in
22:44 38.7 °F 37.8 °F 30 in SW 2.9 mph 7.2 mph 96 % 0 in
22:49 38.7 °F 37.8 °F 30 in SSW 3.1 mph 6.5 mph 96 % 0 in
22:54 38.7 °F 37.9 °F 30 in SW 2.5 mph 6.5 mph 97 % 0 in
22:59 38.7 °F 37.9 °F 30 in SSW 4.7 mph 5.8 mph 97 % 0 in
23:04 38.8 °F 38.1 °F 30 in SSW 8.7 mph 8.7 mph 97 % 0 in
23:09 39 °F 38.3 °F 30 in SW 4.9 mph 8.7 mph 97 % 0 in
23:14 39 °F 38.3 °F 30 in SW 4.5 mph 7.4 mph 97 % 0 in
23:19 39.2 °F 38.5 °F 30 in WSW 5.8 mph 7.4 mph 97 % 0 in
23:24 39.6 °F 38.8 °F 30 in SSW 5.6 mph 8.1 mph 97 % 0 in
23:29 39.6 °F 38.8 °F 30 in SSW 3.6 mph 8.1 mph 97 % 0 in
23:34 39.6 °F 38.8 °F 30 in SW 2.9 mph 6.5 mph 97 % 0 in
23:39 39.6 °F 38.8 °F 30 in SSW 4.7 mph 6 mph 97 % 0 in
23:44 39.6 °F 38.8 °F 30 in SSW 2.5 mph 5.8 mph 97 % 0 in
23:49 39.4 °F 38.7 °F 30 in SSW 0.9 mph 5.4 mph 97 % 0 in
23:54 39.4 °F 38.5 °F 30 in South 4.3 mph 5.6 mph 96 % 0 in
23:59 39.4 °F 38.5 °F 30 in SSW 3.1 mph 6.3 mph 96 % 0 in
Le Gheer Warneton
Courtoisie de Weather Underground - 2.25 mb

Mise a jour : 17-12-17 07:17:12
Généré par Cumulus 1.9.4 (1099)